createdAt,value
2019-04-16T00:02:54.564Z,31.61
2019-04-16T00:05:46.117Z,31.67
2019-04-16T00:08:37.182Z,31.86
2019-04-16T00:11:36.054Z,31.86
2019-04-16T00:14:34.014Z,31.85
2019-04-16T00:17:13.155Z,32.02
2019-04-16T00:19:52.072Z,32.13
2019-04-16T00:22:37.918Z,32.41
2019-04-16T00:25:15.058Z,32.60
2019-04-16T00:27:52.341Z,32.58
2019-04-16T00:30:30.060Z,32.45
2019-04-16T00:33:07.624Z,32.33
2019-04-16T00:35:46.615Z,32.96
2019-04-16T00:38:24.058Z,32.51
2019-04-16T00:41:02.372Z,32.82
2019-04-16T00:43:39.435Z,33.02
2019-04-16T00:46:16.520Z,33.20
2019-04-16T00:48:54.820Z,33.42
2019-04-16T00:51:33.461Z,33.62
2019-04-16T00:54:11.386Z,33.61
2019-04-16T00:56:49.069Z,33.69
2019-04-16T00:59:25.680Z,33.48
2019-04-16T01:02:03.755Z,33.45
2019-04-16T01:04:41.505Z,33.28
2019-04-16T01:07:19.156Z,33.21
2019-04-16T01:09:56.659Z,33.15
2019-04-16T01:12:35.964Z,33.08
2019-04-16T01:15:12.720Z,32.97
2019-04-16T01:17:49.672Z,33.18
2019-04-16T01:20:27.678Z,33.24
2019-04-16T01:23:05.422Z,33.36
2019-04-16T01:25:42.930Z,33.58
2019-04-16T01:28:23.816Z,33.68
2019-04-16T01:31:11.412Z,34.00
2019-04-16T01:34:10.365Z,34.65
2019-04-16T01:36:54.402Z,34.13
2019-04-16T01:39:32.108Z,33.64
2019-04-16T01:42:09.160Z,33.17
2019-04-16T01:44:47.256Z,33.52
2019-04-16T01:47:25.877Z,33.10
2019-04-16T01:50:03.261Z,32.93
2019-04-16T01:52:42.659Z,33.05
2019-04-16T01:55:20.516Z,33.66
2019-04-16T01:57:59.635Z,33.82
2019-04-16T02:00:39.215Z,34.54
2019-04-16T02:03:17.806Z,33.84
2019-04-16T02:05:56.525Z,34.04
2019-04-16T02:08:33.804Z,34.12
2019-04-16T02:11:11.447Z,34.35
2019-04-16T02:13:48.647Z,35.12
2019-04-16T02:16:26.860Z,34.93
2019-04-16T02:19:04.258Z,34.22
2019-04-16T02:21:42.413Z,34.30
2019-04-16T02:24:20.780Z,34.46
2019-04-16T02:26:58.321Z,34.78
2019-04-16T02:29:36.520Z,34.92
2019-04-16T02:32:13.446Z,34.69
2019-04-16T02:34:51.046Z,34.95
2019-04-16T02:37:28.372Z,35.47
2019-04-16T02:40:07.326Z,34.71
2019-04-16T02:42:46.866Z,34.80
2019-04-16T02:45:24.602Z,35.57
2019-04-16T02:48:05.198Z,36.05
2019-04-16T02:50:47.711Z,36.02
2019-04-16T02:54:04.418Z,36.02
2019-04-16T02:57:25.880Z,36.56
2019-04-16T02:59:59.800Z,38.26
2019-04-16T03:02:54.612Z,38.38
2019-04-16T03:05:40.791Z,38.47
2019-04-16T03:08:17.969Z,38.12
2019-04-16T03:10:56.077Z,38.04
2019-04-16T03:13:34.116Z,37.53
2019-04-16T03:16:18.967Z,38.16
2019-04-16T03:19:03.609Z,38.48
2019-04-16T03:21:41.383Z,38.56
2019-04-16T03:24:19.564Z,38.87
2019-04-16T03:26:57.314Z,37.97
2019-04-16T03:29:34.859Z,38.71
2019-04-16T03:32:15.024Z,38.41
2019-04-16T03:34:53.366Z,36.45
2019-04-16T03:37:32.990Z,36.97
2019-04-16T03:40:17.123Z,35.96
2019-04-16T03:42:48.914Z,36.35
2019-04-16T03:45:26.481Z,36.43
2019-04-16T03:48:03.633Z,35.85
2019-04-16T03:50:40.639Z,35.59
2019-04-16T03:53:18.500Z,35.98
2019-04-16T03:55:58.311Z,35.81
2019-04-16T03:58:38.535Z,35.09
2019-04-16T04:01:15.964Z,35.09
2019-04-16T04:03:54.437Z,34.66
2019-04-16T04:06:33.239Z,35.03
2019-04-16T04:09:11.787Z,34.97
2019-04-16T04:11:49.040Z,35.02
2019-04-16T04:14:26.737Z,35.33
2019-04-16T04:17:06.595Z,35.90
2019-04-16T04:19:43.525Z,35.29
2019-04-16T04:22:22.799Z,34.90
2019-04-16T04:25:04.361Z,35.28
2019-04-16T04:27:40.152Z,34.64
2019-04-16T04:30:20.388Z,34.12
2019-04-16T04:32:57.587Z,34.43
2019-04-16T04:35:35.269Z,34.47
2019-04-16T04:38:12.629Z,34.55
2019-04-16T04:40:50.950Z,33.87
2019-04-16T04:43:29.383Z,34.19
2019-04-16T04:46:12.992Z,35.13
2019-04-16T04:48:48.261Z,35.58
2019-04-16T04:51:25.426Z,35.65
2019-04-16T04:54:02.478Z,35.28
2019-04-16T04:56:40.920Z,35.61
2019-04-16T04:59:17.991Z,34.86
2019-04-16T05:01:55.866Z,34.85
2019-04-16T05:04:57.530Z,34.68
2019-04-16T05:07:34.588Z,34.70
2019-04-16T05:10:12.347Z,34.87
2019-04-16T05:12:53.713Z,34.52
2019-04-16T05:15:30.726Z,34.44
2019-04-16T05:18:09.804Z,35.08
2019-04-16T05:20:47.673Z,34.80
2019-04-16T05:23:27.303Z,34.46
2019-04-16T05:26:05.430Z,34.35
2019-04-16T05:28:45.523Z,34.71
2019-04-16T05:31:25.645Z,34.65
2019-04-16T05:34:02.445Z,34.87
2019-04-16T05:36:40.273Z,34.77
2019-04-16T05:39:18.441Z,34.07
2019-04-16T05:41:55.861Z,34.15
2019-04-16T05:44:34.077Z,34.32
2019-04-16T05:47:10.834Z,34.22
2019-04-16T05:49:48.122Z,34.40
2019-04-16T05:52:25.701Z,34.37
2019-04-16T05:55:08.534Z,34.58
2019-04-16T05:57:47.537Z,34.34
2019-04-16T06:00:34.753Z,34.90
2019-04-16T06:03:14.261Z,35.14
2019-04-16T06:07:08.009Z,34.76
2019-04-16T06:15:35.985Z,34.70
2019-04-16T07:22:55.190Z,35.44
2019-04-16T07:25:39.390Z,35.58
2019-04-16T07:28:28.735Z,35.50
2019-04-16T07:31:32.884Z,35.19
2019-04-16T07:34:09.045Z,34.71
2019-04-16T07:37:00.965Z,34.84
2019-04-16T07:39:54.835Z,35.18
2019-04-16T07:43:47.226Z,35.34
2019-04-16T07:45:45.898Z,35.15
2019-04-16T07:48:32.818Z,35.33
2019-04-16T07:51:26.275Z,35.77
2019-04-16T07:54:22.451Z,35.41
2019-04-16T07:57:01.063Z,35.03
2019-04-16T07:59:39.251Z,35.66
2019-04-16T08:02:17.683Z,35.89
2019-04-16T08:04:55.944Z,36.05
2019-04-16T08:07:33.986Z,35.11
2019-04-16T08:10:11.206Z,35.65
2019-04-16T08:12:52.345Z,35.82
2019-04-16T08:15:29.536Z,35.59
2019-04-16T08:18:12.389Z,35.51
2019-04-16T08:21:00.636Z,35.22
2019-04-16T08:23:52.931Z,35.37
2019-04-16T08:26:29.281Z,35.37
2019-04-16T08:29:08.360Z,35.42
2019-04-16T08:31:48.112Z,35.15
2019-04-16T08:34:25.308Z,35.52
2019-04-16T08:37:02.597Z,35.30
2019-04-16T08:39:41.406Z,35.29
2019-04-16T08:42:18.200Z,35.68
2019-04-16T08:44:55.122Z,35.63
2019-04-16T08:47:32.422Z,35.83
2019-04-16T08:50:12.179Z,35.83
2019-04-16T08:52:49.697Z,35.65
2019-04-16T08:55:27.546Z,36.21
2019-04-16T08:58:06.370Z,36.11
2019-04-16T09:00:47.765Z,35.92
2019-04-16T09:03:26.939Z,35.50
2019-04-16T09:06:04.649Z,35.77
2019-04-16T09:08:53.836Z,36.14
2019-04-16T09:11:35.062Z,35.46
2019-04-16T09:14:10.723Z,35.68
2019-04-16T09:17:01.898Z,35.59
2019-04-16T09:19:40.091Z,35.94
2019-04-16T09:22:17.790Z,36.01
2019-04-16T09:25:29.684Z,35.59
2019-04-16T09:28:26.232Z,35.96
2019-04-16T09:31:31.471Z,35.81
2019-04-16T09:34:13.008Z,35.25
2019-04-16T09:37:03.466Z,35.55
2019-04-16T09:39:57.598Z,35.54
2019-04-16T09:42:35.782Z,35.75
2019-04-16T09:45:20.133Z,35.68
2019-04-16T09:47:57.327Z,35.90
2019-04-16T09:50:34.873Z,36.00
2019-04-16T09:53:12.991Z,35.48
2019-04-16T09:55:51.427Z,35.16
2019-04-16T09:58:30.130Z,35.44
2019-04-16T10:01:11.357Z,35.38
2019-04-16T10:03:53.677Z,35.29
2019-04-16T10:06:31.927Z,35.52
2019-04-16T10:09:09.797Z,35.36
2019-04-16T10:11:47.438Z,35.54
2019-04-16T10:14:24.317Z,35.91
2019-04-16T10:17:02.027Z,35.21
2019-04-16T10:19:42.975Z,34.77
2019-04-16T10:22:18.451Z,35.22
2019-04-16T10:25:02.305Z,35.38
2019-04-16T10:28:04.925Z,35.22
2019-04-16T10:30:50.578Z,34.79
2019-04-16T10:33:28.729Z,35.30
2019-04-16T10:36:06.239Z,34.85
2019-04-16T10:38:57.450Z,34.50
2019-04-16T10:41:41.776Z,34.94
2019-04-16T10:44:38.451Z,35.01
2019-04-16T10:47:37.205Z,35.14
2019-04-16T10:50:39.539Z,35.02
2019-04-16T10:53:22.826Z,34.68
2019-04-16T10:56:20.672Z,34.49
2019-04-16T10:59:12.947Z,34.67
2019-04-16T11:01:57.289Z,34.64
2019-04-16T11:04:50.131Z,34.19
2019-04-16T11:07:29.253Z,34.16
2019-04-16T11:10:07.569Z,34.02
2019-04-16T11:12:45.492Z,33.56
2019-04-16T11:15:24.526Z,33.64
2019-04-16T11:18:01.910Z,33.82
2019-04-16T11:20:39.308Z,33.61
2019-04-16T11:23:17.480Z,33.36
2019-04-16T11:25:54.888Z,33.41
2019-04-16T11:28:32.327Z,33.43
2019-04-16T11:31:15.640Z,33.13
2019-04-16T11:33:52.700Z,33.03
2019-04-16T11:36:31.682Z,33.11
2019-04-16T11:39:11.140Z,33.14
2019-04-16T11:41:47.940Z,32.83
2019-04-16T11:44:26.339Z,32.48
2019-04-16T11:47:03.884Z,32.77
2019-04-16T11:49:41.486Z,33.04
2019-04-16T11:52:18.506Z,32.88
2019-04-16T11:54:57.085Z,32.41
2019-04-16T11:57:35.682Z,32.58
2019-04-16T12:00:15.566Z,32.83
2019-04-16T12:03:10.949Z,33.03
2019-04-16T12:06:01.098Z,32.82
2019-04-16T12:09:03.549Z,32.53
2019-04-16T12:11:44.917Z,32.76
2019-04-16T12:14:42.463Z,32.76
2019-04-16T12:17:25.275Z,32.51
2019-04-16T12:20:22.130Z,32.62
2019-04-16T12:23:21.227Z,32.65
2019-04-16T12:26:16.106Z,32.93
2019-04-16T12:29:02.776Z,32.28
2019-04-16T12:32:11.434Z,32.32
2019-04-16T12:35:05.999Z,32.40
2019-04-16T12:38:04.339Z,32.35
2019-04-16T12:41:07.133Z,32.30
2019-04-16T12:43:50.807Z,32.27
2019-04-16T12:46:49.328Z,32.66
2019-04-16T12:49:42.971Z,32.50
2019-04-16T12:52:42.370Z,32.65
2019-04-16T12:55:44.210Z,32.26
2019-04-16T12:58:36.640Z,32.32
2019-04-16T13:01:27.558Z,32.01
2019-04-16T13:04:25.047Z,32.27
2019-04-16T13:07:20.701Z,32.43
2019-04-16T13:10:28.997Z,32.49
2019-04-16T13:13:24.418Z,32.62
2019-04-16T13:16:13.556Z,32.41
2019-04-16T13:19:11.613Z,32.55
2019-04-16T13:21:52.703Z,32.12
2019-04-16T13:24:42.936Z,31.99
2019-04-16T13:27:23.795Z,32.08
2019-04-16T13:30:03.056Z,32.25
2019-04-16T13:32:40.830Z,32.16
2019-04-16T13:35:17.701Z,32.22
2019-04-16T13:37:55.383Z,32.27
2019-04-16T13:40:32.376Z,32.24
2019-04-16T13:43:10.674Z,32.11
2019-04-16T13:45:47.149Z,32.07
2019-04-16T13:48:33.233Z,32.20
2019-04-16T13:51:18.520Z,32.30
2019-04-16T13:54:09.214Z,32.01
2019-04-16T13:56:55.918Z,31.85
2019-04-16T13:59:54.945Z,31.94
2019-04-16T14:02:40.731Z,32.16
2019-04-16T14:05:17.728Z,31.88
2019-04-16T14:07:55.955Z,31.71
2019-04-16T14:10:34.324Z,31.74
2019-04-16T14:13:14.067Z,32.07
2019-04-16T14:15:52.579Z,32.09
2019-04-16T14:18:32.705Z,31.91
2019-04-16T14:21:09.495Z,31.70
2019-04-16T14:23:46.396Z,31.91
2019-04-16T14:26:23.461Z,32.05
2019-04-16T14:29:05.543Z,32.01
2019-04-16T14:31:40.189Z,31.62
2019-04-16T14:34:33.373Z,31.76
2019-04-16T14:37:10.940Z,32.01
2019-04-16T14:39:53.804Z,31.82
2019-04-16T14:42:32.137Z,31.86
2019-04-16T14:45:20.793Z,31.74
2019-04-16T14:47:58.413Z,31.79
2019-04-16T14:50:35.833Z,31.83
2019-04-16T14:53:15.552Z,31.71
2019-04-16T14:56:01.753Z,31.60
2019-04-16T14:58:52.606Z,31.77
2019-04-16T15:01:40.731Z,31.73
2019-04-16T15:04:43.160Z,31.89
2019-04-16T15:07:39.658Z,31.94
2019-04-16T15:10:34.849Z,31.75
2019-04-16T15:13:32.371Z,31.82
2019-04-16T15:16:34.896Z,31.94
2019-04-16T15:19:30.078Z,31.91
2019-04-16T15:22:39.375Z,31.74
2019-04-16T15:25:24.076Z,31.88
2019-04-16T15:28:21.092Z,31.94
2019-04-16T15:31:07.475Z,31.87
2019-04-16T15:33:54.763Z,31.50
2019-04-16T15:36:39.503Z,31.99
2019-04-16T15:39:23.048Z,32.29
2019-04-16T15:42:20.938Z,32.58
2019-04-16T15:45:09.520Z,32.08
2019-04-16T15:48:04.573Z,32.48
2019-04-16T15:50:52.944Z,32.60
2019-04-16T15:53:37.988Z,32.44
2019-04-16T15:56:31.745Z,32.27
2019-04-16T15:59:14.916Z,32.45
2019-04-16T16:02:13.643Z,32.46
2019-04-16T16:05:02.727Z,32.18
2019-04-16T16:07:45.903Z,32.39
2019-04-16T16:10:26.702Z,32.05
2019-04-16T16:13:03.825Z,32.21
2019-04-16T16:15:41.409Z,32.01
2019-04-16T16:18:19.292Z,32.06
2019-04-16T16:20:56.127Z,32.24
2019-04-16T16:23:34.305Z,32.39
2019-04-16T16:26:11.516Z,32.38
2019-04-16T16:28:48.287Z,32.54
2019-04-16T16:31:26.020Z,32.42
2019-04-16T16:34:03.983Z,32.52
2019-04-16T16:36:40.883Z,32.62
2019-04-16T16:39:17.805Z,32.47
2019-04-16T16:41:55.416Z,32.70
2019-04-16T16:44:33.362Z,32.10
2019-04-16T16:47:28.468Z,31.97
2019-04-16T16:50:10.300Z,31.82
2019-04-16T16:53:02.894Z,32.03
2019-04-16T16:55:45.048Z,32.08
2019-04-16T16:58:35.187Z,31.86
2019-04-16T17:01:34.673Z,31.87
2019-04-16T17:04:21.712Z,31.91
2019-04-16T17:06:59.271Z,32.17
2019-04-16T17:09:38.913Z,31.66
2019-04-16T17:12:16.167Z,31.44
2019-04-16T17:14:54.514Z,31.55
2019-04-16T17:17:33.504Z,31.68
2019-04-16T17:20:11.942Z,31.39
2019-04-16T17:22:48.857Z,31.35
2019-04-16T17:25:36.228Z,31.72
2019-04-16T17:28:05.627Z,32.08
2019-04-16T17:30:42.880Z,32.13
2019-04-16T17:33:20.638Z,31.54
2019-04-16T17:35:59.017Z,31.56
2019-04-16T17:38:37.760Z,31.95
2019-04-16T17:41:18.564Z,31.72
2019-04-16T17:44:18.650Z,31.18
2019-04-16T17:47:31.944Z,31.30
2019-04-16T17:50:04.933Z,31.51
2019-04-16T17:52:58.436Z,31.64
2019-04-16T17:56:06.603Z,31.37
2019-04-16T17:59:08.358Z,31.27
2019-04-16T18:02:20.324Z,31.45
2019-04-16T18:05:23.527Z,31.39
2019-04-16T18:08:16.853Z,31.25
2019-04-16T18:11:02.205Z,31.25
2019-04-16T18:13:46.506Z,31.36
2019-04-16T18:16:42.100Z,31.41
2019-04-16T18:19:36.546Z,31.81
2019-04-16T18:22:23.380Z,31.45
2019-04-16T18:25:21.320Z,31.33
2019-04-16T18:28:09.679Z,31.46
2019-04-16T18:30:58.936Z,31.56
2019-04-16T18:33:41.895Z,31.65
2019-04-16T18:36:34.328Z,31.62
2019-04-16T18:39:28.945Z,31.26
2019-04-16T18:42:27.624Z,31.45
2019-04-16T18:45:30.491Z,31.49
2019-04-16T18:48:15.498Z,31.30
2019-04-16T18:50:52.508Z,31.34
2019-04-16T18:53:30.832Z,31.54
2019-04-16T18:56:09.585Z,31.47
2019-04-16T18:58:48.041Z,31.26
2019-04-16T19:01:29.703Z,31.33
2019-04-16T19:04:08.050Z,31.29
2019-04-16T19:06:45.324Z,31.28
2019-04-16T19:09:23.386Z,31.10
2019-04-16T19:12:00.717Z,31.14
2019-04-16T19:14:37.700Z,31.55
2019-04-16T19:17:16.630Z,31.44
2019-04-16T19:19:53.638Z,31.41
2019-04-16T19:22:30.305Z,31.01
2019-04-16T19:25:09.399Z,31.04
2019-04-16T19:27:49.078Z,31.45
2019-04-16T19:30:26.386Z,31.40
2019-04-16T19:33:03.670Z,31.06
2019-04-16T19:35:41.895Z,31.04
2019-04-16T19:38:18.985Z,31.43
2019-04-16T19:40:56.243Z,31.55
2019-04-16T19:43:35.255Z,31.39
2019-04-16T19:46:15.323Z,31.42
2019-04-16T19:48:51.449Z,31.53
2019-04-16T19:51:29.018Z,31.65
2019-04-16T19:54:07.202Z,31.69
2019-04-16T19:56:45.134Z,31.29
2019-04-16T19:59:22.962Z,31.23
2019-04-16T20:02:01.780Z,31.36
2019-04-16T20:04:41.477Z,31.38
2019-04-16T20:07:18.681Z,31.22
2019-04-16T20:09:55.658Z,31.55
2019-04-16T20:12:32.806Z,31.63
2019-04-16T20:15:09.942Z,31.83
2019-04-16T20:17:47.601Z,31.63
2019-04-16T20:20:24.557Z,31.62
2019-04-16T20:23:01.561Z,31.94
2019-04-16T20:25:38.774Z,32.02
2019-04-16T20:28:16.720Z,31.97
2019-04-16T20:31:01.968Z,31.75
2019-04-16T20:33:33.969Z,31.73
2019-04-16T20:36:11.625Z,31.48
2019-04-16T20:38:49.039Z,31.53
2019-04-16T20:41:26.337Z,31.45
2019-04-16T20:44:04.425Z,31.51
2019-04-16T20:46:41.120Z,31.58
2019-04-16T20:49:17.649Z,31.32
2019-04-16T20:51:56.572Z,31.19
2019-04-16T20:54:33.758Z,31.50
2019-04-16T20:57:10.920Z,31.61
2019-04-16T20:59:50.136Z,31.45
2019-04-16T21:02:29.894Z,31.08
2019-04-16T21:05:21.435Z,31.21
2019-04-16T21:07:47.385Z,31.53
2019-04-16T21:10:25.140Z,31.39
2019-04-16T21:13:02.402Z,31.25
2019-04-16T21:15:41.409Z,31.53
2019-04-16T21:18:18.384Z,31.53
2019-04-16T21:20:55.096Z,31.69
2019-04-16T21:23:34.772Z,31.64
2019-04-16T21:26:10.954Z,31.58
2019-04-16T21:29:05.154Z,31.37
2019-04-16T21:31:46.015Z,31.21
2019-04-16T21:34:29.894Z,31.07
2019-04-16T21:37:23.808Z,31.25
2019-04-16T21:40:04.823Z,31.47
2019-04-16T21:42:42.174Z,31.58
2019-04-16T21:45:19.682Z,31.32
2019-04-16T21:47:57.009Z,31.70
2019-04-16T21:50:33.742Z,31.70
2019-04-16T21:53:11.042Z,31.48
2019-04-16T21:55:47.733Z,31.10
2019-04-16T21:58:25.724Z,31.24
2019-04-16T22:01:35.985Z,31.45
2019-04-16T22:04:18.464Z,31.48
2019-04-16T22:06:58.307Z,31.13
2019-04-16T22:09:36.578Z,31.25
2019-04-16T22:12:15.564Z,31.69
2019-04-16T22:14:54.402Z,31.86
2019-04-16T22:17:35.445Z,31.67
2019-04-16T22:20:11.217Z,31.24
2019-04-16T22:22:47.854Z,31.29
2019-04-16T22:25:26.661Z,31.69
2019-04-16T22:28:03.624Z,31.45
2019-04-16T22:30:42.158Z,31.07
2019-04-16T22:33:19.101Z,31.08
2019-04-16T22:35:57.208Z,31.43
2019-04-16T22:38:37.098Z,31.36
2019-04-16T22:41:32.448Z,31.37
2019-04-16T22:44:26.588Z,30.99
2019-04-16T22:47:09.146Z,31.05
2019-04-16T22:49:45.864Z,31.19
2019-04-16T22:52:24.496Z,31.15
2019-04-16T22:55:01.719Z,31.22
2019-04-16T22:57:39.401Z,30.99
2019-04-16T23:00:34.789Z,30.96
2019-04-16T23:03:13.479Z,31.11
2019-04-16T23:05:50.973Z,31.14
2019-04-16T23:08:28.319Z,31.06
2019-04-16T23:11:07.053Z,30.91
2019-04-16T23:13:46.213Z,30.87
2019-04-16T23:16:23.181Z,31.17
2019-04-16T23:19:00.177Z,31.26
2019-04-16T23:21:42.331Z,31.27
2019-04-16T23:24:16.217Z,31.13
2019-04-16T23:26:53.066Z,31.33
2019-04-16T23:29:30.383Z,31.76
2019-04-16T23:32:08.197Z,31.81
2019-04-16T23:34:47.364Z,31.74
2019-04-16T23:37:25.214Z,31.77
2019-04-16T23:40:03.250Z,31.72
2019-04-16T23:42:47.456Z,31.71
2019-04-16T23:45:41.627Z,31.99
2019-04-16T23:48:28.406Z,32.02
2019-04-16T23:51:19.650Z,32.05
2019-04-16T23:54:14.019Z,32.48
2019-04-16T23:57:21.708Z,31.74
